sensor_id;sensor_type;location;lat;lon;timestamp;P1;durP1;ratioP1;P2;durP2;ratioP2
35326;SDS011;21436;52.348;20.928;2023-10-19T00:02:15;137.70;;;37.22;;
35326;SDS011;21436;52.348;20.928;2023-10-19T00:04:47;102.63;;;34.70;;
35326;SDS011;21436;52.348;20.928;2023-10-19T00:07:15;106.45;;;35.08;;
35326;SDS011;21436;52.348;20.928;2023-10-19T00:09:43;127.50;;;34.80;;
35326;SDS011;21436;52.348;20.928;2023-10-19T00:12:15;145.57;;;36.38;;
35326;SDS011;21436;52.348;20.928;2023-10-19T00:14:45;137.45;;;35.88;;
35326;SDS011;21436;52.348;20.928;2023-10-19T00:17:13;90.90;;;34.03;;
35326;SDS011;21436;52.348;20.928;2023-10-19T00:19:42;92.93;;;36.10;;
35326;SDS011;21436;52.348;20.928;2023-10-19T00:22:25;87.47;;;32.90;;
35326;SDS011;21436;52.348;20.928;2023-10-19T00:24:53;86.45;;;34.97;;
35326;SDS011;21436;52.348;20.928;2023-10-19T00:27:22;79.40;;;32.65;;
35326;SDS011;21436;52.348;20.928;2023-10-19T00:29:51;83.63;;;31.75;;
35326;SDS011;21436;52.348;20.928;2023-10-19T00:32:23;67.63;;;24.80;;
35326;SDS011;21436;52.348;20.928;2023-10-19T00:34:52;92.82;;;32.83;;
35326;SDS011;21436;52.348;20.928;2023-10-19T00:37:21;73.05;;;30.30;;
35326;SDS011;21436;52.348;20.928;2023-10-19T00:39:56;75.03;;;30.75;;
35326;SDS011;21436;52.348;20.928;2023-10-19T00:42:41;74.20;;;30.80;;
35326;SDS011;21436;52.348;20.928;2023-10-19T00:45:13;81.17;;;30.87;;
35326;SDS011;21436;52.348;20.928;2023-10-19T00:47:43;68.68;;;29.10;;
35326;SDS011;21436;52.348;20.928;2023-10-19T00:50:11;75.68;;;31.60;;
35326;SDS011;21436;52.348;20.928;2023-10-19T00:52:45;77.75;;;31.88;;
35326;SDS011;21436;52.348;20.928;2023-10-19T00:55:18;78.95;;;31.05;;
35326;SDS011;21436;52.348;20.928;2023-10-19T00:57:49;70.03;;;31.40;;
35326;SDS011;21436;52.348;20.928;2023-10-19T01:00:17;67.32;;;31.25;;
35326;SDS011;21436;52.348;20.928;2023-10-19T01:03:10;66.70;;;31.05;;
35326;SDS011;21436;52.348;20.928;2023-10-19T01:05:41;65.25;;;29.92;;
35326;SDS011;21436;52.348;20.928;2023-10-19T01:08:16;73.60;;;30.17;;
35326;SDS011;21436;52.348;20.928;2023-10-19T01:10:53;74.82;;;31.48;;
35326;SDS011;21436;52.348;20.928;2023-10-19T01:13:22;72.95;;;30.27;;
35326;SDS011;21436;52.348;20.928;2023-10-19T01:16:02;77.97;;;31.85;;
35326;SDS011;21436;52.348;20.928;2023-10-19T01:18:31;76.70;;;34.75;;
35326;SDS011;21436;52.348;20.928;2023-10-19T01:21:00;79.72;;;33.42;;
35326;SDS011;21436;52.348;20.928;2023-10-19T01:23:34;86.15;;;34.50;;
35326;SDS011;21436;52.348;20.928;2023-10-19T01:26:03;81.75;;;34.72;;
35326;SDS011;21436;52.348;20.928;2023-10-19T01:28:37;78.35;;;33.13;;
35326;SDS011;21436;52.348;20.928;2023-10-19T01:31:15;75.28;;;31.70;;
35326;SDS011;21436;52.348;20.928;2023-10-19T01:33:50;76.82;;;31.65;;
35326;SDS011;21436;52.348;20.928;2023-10-19T01:36:17;81.45;;;33.35;;
35326;SDS011;21436;52.348;20.928;2023-10-19T01:38:56;66.65;;;31.23;;
35326;SDS011;21436;52.348;20.928;2023-10-19T01:41:28;79.35;;;32.95;;
35326;SDS011;21436;52.348;20.928;2023-10-19T01:43:59;78.25;;;32.88;;
35326;SDS011;21436;52.348;20.928;2023-10-19T01:46:32;75.75;;;33.10;;
35326;SDS011;21436;52.348;20.928;2023-10-19T01:49:03;77.15;;;31.58;;
35326;SDS011;21436;52.348;20.928;2023-10-19T01:51:33;77.80;;;33.00;;
35326;SDS011;21436;52.348;20.928;2023-10-19T01:54:11;67.35;;;31.73;;
35326;SDS011;21436;52.348;20.928;2023-10-19T01:56:41;68.80;;;31.00;;
35326;SDS011;21436;52.348;20.928;2023-10-19T01:59:11;76.32;;;31.70;;
35326;SDS011;21436;52.348;20.928;2023-10-19T02:01:40;69.45;;;30.73;;
35326;SDS011;21436;52.348;20.928;2023-10-19T02:04:12;69.53;;;30.43;;
35326;SDS011;21436;52.348;20.928;2023-10-19T02:06:41;61.85;;;28.95;;
35326;SDS011;21436;52.348;20.928;2023-10-19T02:09:10;75.72;;;32.20;;
35326;SDS011;21436;52.348;20.928;2023-10-19T02:11:50;71.50;;;28.77;;
35326;SDS011;21436;52.348;20.928;2023-10-19T02:14:30;69.25;;;29.27;;
35326;SDS011;21436;52.348;20.928;2023-10-19T02:16:59;79.47;;;31.33;;
35326;SDS011;21436;52.348;20.928;2023-10-19T02:19:30;76.05;;;31.92;;
35326;SDS011;21436;52.348;20.928;2023-10-19T02:22:01;64.47;;;27.83;;
35326;SDS011;21436;52.348;20.928;2023-10-19T02:24:40;67.70;;;29.38;;
35326;SDS011;21436;52.348;20.928;2023-10-19T02:27:09;78.72;;;31.95;;
35326;SDS011;21436;52.348;20.928;2023-10-19T02:29:49;72.20;;;32.10;;
35326;SDS011;21436;52.348;20.928;2023-10-19T02:32:17;69.03;;;30.02;;
35326;SDS011;21436;52.348;20.928;2023-10-19T02:34:46;78.20;;;30.92;;
35326;SDS011;21436;52.348;20.928;2023-10-19T02:37:14;78.03;;;31.67;;
35326;SDS011;21436;52.348;20.928;2023-10-19T02:39:44;72.60;;;29.05;;
35326;SDS011;21436;52.348;20.928;2023-10-19T02:42:12;65.93;;;29.30;;
35326;SDS011;21436;52.348;20.928;2023-10-19T02:44:40;67.32;;;29.15;;
35326;SDS011;21436;52.348;20.928;2023-10-19T02:47:09;62.97;;;28.23;;
35326;SDS011;21436;52.348;20.928;2023-10-19T02:49:38;73.38;;;30.00;;
35326;SDS011;21436;52.348;20.928;2023-10-19T02:52:07;72.65;;;30.23;;
35326;SDS011;21436;52.348;20.928;2023-10-19T02:54:35;74.28;;;29.00;;
35326;SDS011;21436;52.348;20.928;2023-10-19T02:57:04;85.35;;;30.73;;
35326;SDS011;21436;52.348;20.928;2023-10-19T02:59:37;77.65;;;33.92;;
35326;SDS011;21436;52.348;20.928;2023-10-19T03:02:06;93.57;;;34.53;;
35326;SDS011;21436;52.348;20.928;2023-10-19T03:04:41;80.60;;;32.90;;
35326;SDS011;21436;52.348;20.928;2023-10-19T03:07:14;76.43;;;33.13;;
35326;SDS011;21436;52.348;20.928;2023-10-19T03:09:44;76.60;;;32.95;;
35326;SDS011;21436;52.348;20.928;2023-10-19T03:12:21;80.63;;;31.88;;
35326;SDS011;21436;52.348;20.928;2023-10-19T03:14:53;77.13;;;33.50;;
35326;SDS011;21436;52.348;20.928;2023-10-19T03:17:21;78.38;;;30.40;;
35326;SDS011;21436;52.348;20.928;2023-10-19T03:19:49;86.18;;;33.63;;
35326;SDS011;21436;52.348;20.928;2023-10-19T03:22:17;78.72;;;31.80;;
35326;SDS011;21436;52.348;20.928;2023-10-19T03:24:47;75.00;;;30.38;;
35326;SDS011;21436;52.348;20.928;2023-10-19T03:27:15;78.95;;;30.73;;
35326;SDS011;21436;52.348;20.928;2023-10-19T03:29:51;76.93;;;31.75;;
35326;SDS011;21436;52.348;20.928;2023-10-19T03:32:23;81.22;;;33.38;;
35326;SDS011;21436;52.348;20.928;2023-10-19T03:35:01;77.30;;;31.83;;
35326;SDS011;21436;52.348;20.928;2023-10-19T03:37:32;79.10;;;32.92;;
35326;SDS011;21436;52.348;20.928;2023-10-19T03:40:03;84.55;;;32.72;;
35326;SDS011;21436;52.348;20.928;2023-10-19T03:42:35;86.10;;;33.03;;
35326;SDS011;21436;52.348;20.928;2023-10-19T03:45:08;82.45;;;33.47;;
35326;SDS011;21436;52.348;20.928;2023-10-19T03:47:42;71.32;;;31.65;;
35326;SDS011;21436;52.348;20.928;2023-10-19T03:50:17;91.80;;;36.70;;
35326;SDS011;21436;52.348;20.928;2023-10-19T03:52:48;94.80;;;35.55;;
35326;SDS011;21436;52.348;20.928;2023-10-19T03:55:16;74.15;;;31.90;;
35326;SDS011;21436;52.348;20.928;2023-10-19T03:57:51;85.57;;;36.40;;
35326;SDS011;21436;52.348;20.928;2023-10-19T04:00:23;80.80;;;34.85;;
35326;SDS011;21436;52.348;20.928;2023-10-19T04:02:56;89.07;;;34.10;;
35326;SDS011;21436;52.348;20.928;2023-10-19T04:05:27;83.88;;;35.55;;
35326;SDS011;21436;52.348;20.928;2023-10-19T04:07:56;92.38;;;37.03;;
35326;SDS011;21436;52.348;20.928;2023-10-19T04:10:25;90.28;;;36.95;;
35326;SDS011;21436;52.348;20.928;2023-10-19T04:13:06;87.35;;;37.10;;
35326;SDS011;21436;52.348;20.928;2023-10-19T04:15:41;90.45;;;38.55;;
35326;SDS011;21436;52.348;20.928;2023-10-19T04:18:09;102.07;;;39.25;;
35326;SDS011;21436;52.348;20.928;2023-10-19T04:20:38;90.45;;;36.55;;
35326;SDS011;21436;52.348;20.928;2023-10-19T04:23:25;107.13;;;39.95;;
35326;SDS011;21436;52.348;20.928;2023-10-19T04:25:55;97.30;;;39.90;;
35326;SDS011;21436;52.348;20.928;2023-10-19T04:28:31;99.72;;;39.63;;
35326;SDS011;21436;52.348;20.928;2023-10-19T04:31:06;94.45;;;38.55;;
35326;SDS011;21436;52.348;20.928;2023-10-19T04:33:34;103.28;;;39.63;;
35326;SDS011;21436;52.348;20.928;2023-10-19T04:36:04;92.22;;;37.78;;
35326;SDS011;21436;52.348;20.928;2023-10-19T04:38:35;99.28;;;40.53;;
35326;SDS011;21436;52.348;20.928;2023-10-19T04:41:05;105.65;;;42.08;;
35326;SDS011;21436;52.348;20.928;2023-10-19T04:43:35;102.03;;;41.72;;
35326;SDS011;21436;52.348;20.928;2023-10-19T04:46:09;96.50;;;42.33;;
35326;SDS011;21436;52.348;20.928;2023-10-19T04:48:39;109.32;;;42.45;;
35326;SDS011;21436;52.348;20.928;2023-10-19T04:51:08;92.88;;;40.25;;
35326;SDS011;21436;52.348;20.928;2023-10-19T04:53:39;98.43;;;39.00;;
35326;SDS011;21436;52.348;20.928;2023-10-19T04:56:07;97.85;;;42.50;;
35326;SDS011;21436;52.348;20.928;2023-10-19T04:58:39;105.53;;;41.17;;
35326;SDS011;21436;52.348;20.928;2023-10-19T05:01:08;114.93;;;43.05;;
35326;SDS011;21436;52.348;20.928;2023-10-19T05:03:39;104.05;;;42.53;;
35326;SDS011;21436;52.348;20.928;2023-10-19T05:06:07;116.85;;;48.47;;
35326;SDS011;21436;52.348;20.928;2023-10-19T05:08:37;120.38;;;47.20;;
35326;SDS011;21436;52.348;20.928;2023-10-19T05:11:05;126.70;;;49.03;;
35326;SDS011;21436;52.348;20.928;2023-10-19T05:13:33;123.22;;;48.05;;
35326;SDS011;21436;52.348;20.928;2023-10-19T05:16:02;113.55;;;44.65;;
35326;SDS011;21436;52.348;20.928;2023-10-19T05:18:30;118.85;;;46.58;;
35326;SDS011;21436;52.348;20.928;2023-10-19T05:20:58;133.13;;;50.35;;
35326;SDS011;21436;52.348;20.928;2023-10-19T05:23:28;129.40;;;52.13;;
35326;SDS011;21436;52.348;20.928;2023-10-19T05:26:00;128.80;;;51.53;;
35326;SDS011;21436;52.348;20.928;2023-10-19T05:28:30;124.47;;;51.22;;
35326;SDS011;21436;52.348;20.928;2023-10-19T05:30:59;135.23;;;53.10;;
35326;SDS011;21436;52.348;20.928;2023-10-19T05:33:27;126.95;;;49.25;;
35326;SDS011;21436;52.348;20.928;2023-10-19T05:35:58;122.47;;;48.40;;
35326;SDS011;21436;52.348;20.928;2023-10-19T05:38:26;108.70;;;48.42;;
35326;SDS011;21436;52.348;20.928;2023-10-19T05:40:56;113.95;;;48.88;;
35326;SDS011;21436;52.348;20.928;2023-10-19T05:43:27;114.28;;;48.30;;
35326;SDS011;21436;52.348;20.928;2023-10-19T05:45:55;115.20;;;47.80;;
35326;SDS011;21436;52.348;20.928;2023-10-19T05:48:24;113.50;;;47.38;;
35326;SDS011;21436;52.348;20.928;2023-10-19T05:50:53;118.75;;;48.03;;
35326;SDS011;21436;52.348;20.928;2023-10-19T05:53:22;109.60;;;46.25;;
35326;SDS011;21436;52.348;20.928;2023-10-19T05:55:50;115.95;;;47.38;;
35326;SDS011;21436;52.348;20.928;2023-10-19T05:58:18;115.55;;;47.00;;
35326;SDS011;21436;52.348;20.928;2023-10-19T06:00:47;104.78;;;45.08;;
35326;SDS011;21436;52.348;20.928;2023-10-19T06:03:19;104.28;;;44.22;;
35326;SDS011;21436;52.348;20.928;2023-10-19T06:05:49;107.28;;;44.72;;
35326;SDS011;21436;52.348;20.928;2023-10-19T06:08:17;107.15;;;44.25;;
35326;SDS011;21436;52.348;20.928;2023-10-19T06:10:50;102.47;;;43.03;;
35326;SDS011;21436;52.348;20.928;2023-10-19T06:13:21;102.80;;;43.00;;
35326;SDS011;21436;52.348;20.928;2023-10-19T06:15:49;110.22;;;42.28;;
35326;SDS011;21436;52.348;20.928;2023-10-19T06:18:19;103.85;;;42.05;;
35326;SDS011;21436;52.348;20.928;2023-10-19T06:20:48;104.13;;;43.97;;
35326;SDS011;21436;52.348;20.928;2023-10-19T06:23:19;96.47;;;43.38;;
35326;SDS011;21436;52.348;20.928;2023-10-19T06:25:47;94.13;;;40.72;;
35326;SDS011;21436;52.348;20.928;2023-10-19T06:28:15;106.32;;;43.63;;
35326;SDS011;21436;52.348;20.928;2023-10-19T06:30:44;95.72;;;42.08;;
35326;SDS011;21436;52.348;20.928;2023-10-19T06:33:12;98.32;;;41.88;;
35326;SDS011;21436;52.348;20.928;2023-10-19T06:35:41;93.35;;;40.33;;
35326;SDS011;21436;52.348;20.928;2023-10-19T06:38:09;96.38;;;40.88;;
35326;SDS011;21436;52.348;20.928;2023-10-19T06:40:38;80.47;;;35.38;;
35326;SDS011;21436;52.348;20.928;2023-10-19T06:43:06;81.35;;;34.22;;
35326;SDS011;21436;52.348;20.928;2023-10-19T06:45:34;83.85;;;35.95;;
35326;SDS011;21436;52.348;20.928;2023-10-19T06:48:03;77.53;;;34.47;;
35326;SDS011;21436;52.348;20.928;2023-10-19T06:50:32;86.75;;;35.53;;
35326;SDS011;21436;52.348;20.928;2023-10-19T06:53:00;75.95;;;35.80;;
35326;SDS011;21436;52.348;20.928;2023-10-19T06:55:33;82.85;;;36.97;;
35326;SDS011;21436;52.348;20.928;2023-10-19T06:58:01;74.70;;;34.95;;
35326;SDS011;21436;52.348;20.928;2023-10-19T07:00:30;84.22;;;35.72;;
35326;SDS011;21436;52.348;20.928;2023-10-19T07:02:58;75.10;;;31.85;;
35326;SDS011;21436;52.348;20.928;2023-10-19T07:05:30;81.05;;;36.25;;
35326;SDS011;21436;52.348;20.928;2023-10-19T07:07:58;74.38;;;35.45;;
35326;SDS011;21436;52.348;20.928;2023-10-19T07:10:27;83.82;;;34.80;;
35326;SDS011;21436;52.348;20.928;2023-10-19T07:12:56;80.00;;;33.88;;
35326;SDS011;21436;52.348;20.928;2023-10-19T07:15:25;73.68;;;32.67;;
35326;SDS011;21436;52.348;20.928;2023-10-19T07:17:54;71.63;;;31.15;;
35326;SDS011;21436;52.348;20.928;2023-10-19T07:20:23;74.10;;;31.42;;
35326;SDS011;21436;52.348;20.928;2023-10-19T07:23:01;69.57;;;31.98;;
35326;SDS011;21436;52.348;20.928;2023-10-19T07:25:47;77.70;;;32.30;;
35326;SDS011;21436;52.348;20.928;2023-10-19T07:28:22;70.28;;;30.45;;
35326;SDS011;21436;52.348;20.928;2023-10-19T07:30:54;70.25;;;32.17;;
35326;SDS011;21436;52.348;20.928;2023-10-19T07:33:23;75.47;;;33.08;;
35326;SDS011;21436;52.348;20.928;2023-10-19T07:35:52;71.25;;;31.65;;
35326;SDS011;21436;52.348;20.928;2023-10-19T07:38:22;78.95;;;33.63;;
35326;SDS011;21436;52.348;20.928;2023-10-19T07:40:51;76.43;;;32.35;;
35326;SDS011;21436;52.348;20.928;2023-10-19T07:43:21;85.03;;;34.10;;
35326;SDS011;21436;52.348;20.928;2023-10-19T07:45:50;71.30;;;31.85;;
35326;SDS011;21436;52.348;20.928;2023-10-19T07:48:20;67.88;;;30.67;;
35326;SDS011;21436;52.348;20.928;2023-10-19T07:50:48;69.38;;;30.13;;
35326;SDS011;21436;52.348;20.928;2023-10-19T07:53:17;59.25;;;29.40;;
35326;SDS011;21436;52.348;20.928;2023-10-19T07:55:45;63.58;;;30.17;;
35326;SDS011;21436;52.348;20.928;2023-10-19T07:58:13;73.63;;;32.35;;
35326;SDS011;21436;52.348;20.928;2023-10-19T08:00:42;70.35;;;30.25;;
35326;SDS011;21436;52.348;20.928;2023-10-19T08:03:14;68.72;;;30.77;;
35326;SDS011;21436;52.348;20.928;2023-10-19T08:05:45;62.38;;;30.70;;
35326;SDS011;21436;52.348;20.928;2023-10-19T08:08:13;69.93;;;29.60;;
35326;SDS011;21436;52.348;20.928;2023-10-19T08:10:42;69.20;;;31.05;;
35326;SDS011;21436;52.348;20.928;2023-10-19T08:13:10;67.70;;;32.45;;
35326;SDS011;21436;52.348;20.928;2023-10-19T08:15:40;70.10;;;30.27;;
35326;SDS011;21436;52.348;20.928;2023-10-19T08:18:07;60.72;;;29.88;;
35326;SDS011;21436;52.348;20.928;2023-10-19T08:20:36;68.60;;;30.10;;
35326;SDS011;21436;52.348;20.928;2023-10-19T08:23:04;59.90;;;28.90;;
35326;SDS011;21436;52.348;20.928;2023-10-19T08:25:33;60.63;;;28.15;;
35326;SDS011;21436;52.348;20.928;2023-10-19T08:28:21;59.03;;;28.88;;
35326;SDS011;21436;52.348;20.928;2023-10-19T08:30:50;65.90;;;30.75;;
35326;SDS011;21436;52.348;20.928;2023-10-19T08:33:25;64.72;;;29.05;;
35326;SDS011;21436;52.348;20.928;2023-10-19T08:35:57;77.43;;;30.02;;
35326;SDS011;21436;52.348;20.928;2023-10-19T08:40:56;55.13;;;26.85;;
35326;SDS011;21436;52.348;20.928;2023-10-19T08:43:25;50.67;;;25.05;;
35326;SDS011;21436;52.348;20.928;2023-10-19T08:45:54;55.58;;;26.85;;
35326;SDS011;21436;52.348;20.928;2023-10-19T08:48:23;50.25;;;26.25;;
35326;SDS011;21436;52.348;20.928;2023-10-19T08:50:52;50.95;;;25.33;;
35326;SDS011;21436;52.348;20.928;2023-10-19T08:53:20;44.17;;;22.75;;
35326;SDS011;21436;52.348;20.928;2023-10-19T08:55:49;45.53;;;21.85;;
35326;SDS011;21436;52.348;20.928;2023-10-19T08:58:19;50.33;;;22.60;;
35326;SDS011;21436;52.348;20.928;2023-10-19T09:00:50;41.72;;;20.05;;
35326;SDS011;21436;52.348;20.928;2023-10-19T09:05:54;34.63;;;19.00;;
35326;SDS011;21436;52.348;20.928;2023-10-19T09:08:24;38.85;;;17.90;;
35326;SDS011;21436;52.348;20.928;2023-10-19T09:10:53;35.47;;;18.45;;
35326;SDS011;21436;52.348;20.928;2023-10-19T09:13:22;36.50;;;17.80;;
35326;SDS011;21436;52.348;20.928;2023-10-19T09:15:53;33.85;;;17.02;;
35326;SDS011;21436;52.348;20.928;2023-10-19T09:18:22;32.55;;;17.60;;
35326;SDS011;21436;52.348;20.928;2023-10-19T09:20:52;30.45;;;16.30;;
35326;SDS011;21436;52.348;20.928;2023-10-19T09:23:21;33.65;;;15.95;;
35326;SDS011;21436;52.348;20.928;2023-10-19T09:25:51;31.27;;;14.40;;
35326;SDS011;21436;52.348;20.928;2023-10-19T09:28:23;27.70;;;15.30;;
35326;SDS011;21436;52.348;20.928;2023-10-19T09:30:53;29.08;;;14.63;;
35326;SDS011;21436;52.348;20.928;2023-10-19T09:33:21;31.45;;;15.07;;
35326;SDS011;21436;52.348;20.928;2023-10-19T09:35:52;29.15;;;13.63;;
35326;SDS011;21436;52.348;20.928;2023-10-19T09:38:21;28.13;;;14.80;;
35326;SDS011;21436;52.348;20.928;2023-10-19T09:40:51;28.17;;;14.95;;
35326;SDS011;21436;52.348;20.928;2023-10-19T09:43:34;27.90;;;12.82;;
35326;SDS011;21436;52.348;20.928;2023-10-19T09:46:07;27.90;;;13.93;;
35326;SDS011;21436;52.348;20.928;2023-10-19T09:48:40;31.80;;;14.13;;
35326;SDS011;21436;52.348;20.928;2023-10-19T09:51:10;30.23;;;14.15;;
35326;SDS011;21436;52.348;20.928;2023-10-19T09:53:41;33.97;;;15.38;;
35326;SDS011;21436;52.348;20.928;2023-10-19T09:56:13;25.63;;;13.63;;
35326;SDS011;21436;52.348;20.928;2023-10-19T09:58:55;28.05;;;13.52;;
35326;SDS011;21436;52.348;20.928;2023-10-19T10:01:26;26.40;;;12.20;;
35326;SDS011;21436;52.348;20.928;2023-10-19T10:03:55;21.30;;;10.32;;
35326;SDS011;21436;52.348;20.928;2023-10-19T10:06:29;15.93;;;8.00;;
35326;SDS011;21436;52.348;20.928;2023-10-19T10:08:59;13.90;;;6.45;;
35326;SDS011;21436;52.348;20.928;2023-10-19T10:11:28;16.27;;;7.82;;
35326;SDS011;21436;52.348;20.928;2023-10-19T10:13:56;17.88;;;8.88;;
35326;SDS011;21436;52.348;20.928;2023-10-19T10:16:27;16.38;;;8.23;;
35326;SDS011;21436;52.348;20.928;2023-10-19T10:18:59;16.80;;;8.80;;
35326;SDS011;21436;52.348;20.928;2023-10-19T10:21:28;18.48;;;8.43;;
35326;SDS011;21436;52.348;20.928;2023-10-19T10:23:58;15.38;;;8.32;;
35326;SDS011;21436;52.348;20.928;2023-10-19T10:26:28;15.80;;;7.53;;
35326;SDS011;21436;52.348;20.928;2023-10-19T10:29:08;14.02;;;7.20;;
35326;SDS011;21436;52.348;20.928;2023-10-19T10:31:41;16.95;;;8.68;;
35326;SDS011;21436;52.348;20.928;2023-10-19T10:34:11;12.50;;;8.18;;
35326;SDS011;21436;52.348;20.928;2023-10-19T10:37:02;14.85;;;7.70;;
35326;SDS011;21436;52.348;20.928;2023-10-19T10:39:39;14.55;;;8.18;;
35326;SDS011;21436;52.348;20.928;2023-10-19T10:42:13;16.25;;;8.00;;
35326;SDS011;21436;52.348;20.928;2023-10-19T10:44:43;12.60;;;6.90;;
35326;SDS011;21436;52.348;20.928;2023-10-19T10:47:18;16.92;;;7.53;;
35326;SDS011;21436;52.348;20.928;2023-10-19T10:49:57;16.55;;;7.50;;
35326;SDS011;21436;52.348;20.928;2023-10-19T10:52:27;16.30;;;7.55;;
35326;SDS011;21436;52.348;20.928;2023-10-19T10:57:41;18.25;;;8.65;;
35326;SDS011;21436;52.348;20.928;2023-10-19T11:00:11;17.75;;;8.02;;
35326;SDS011;21436;52.348;20.928;2023-10-19T11:05:14;14.88;;;8.20;;
35326;SDS011;21436;52.348;20.928;2023-10-19T11:10:44;14.07;;;8.35;;
35326;SDS011;21436;52.348;20.928;2023-10-19T11:13:15;23.83;;;9.35;;
35326;SDS011;21436;52.348;20.928;2023-10-19T11:15:51;14.18;;;8.45;;
35326;SDS011;21436;52.348;20.928;2023-10-19T11:18:29;36.00;;;9.50;;
35326;SDS011;21436;52.348;20.928;2023-10-19T11:21:08;19.05;;;8.48;;
35326;SDS011;21436;52.348;20.928;2023-10-19T11:26:07;12.93;;;8.18;;
35326;SDS011;21436;52.348;20.928;2023-10-19T11:28:36;16.27;;;8.57;;
35326;SDS011;21436;52.348;20.928;2023-10-19T11:31:18;16.52;;;8.23;;
35326;SDS011;21436;52.348;20.928;2023-10-19T11:33:51;19.95;;;8.63;;
35326;SDS011;21436;52.348;20.928;2023-10-19T11:36:21;19.25;;;8.93;;
35326;SDS011;21436;52.348;20.928;2023-10-19T11:38:52;17.23;;;8.07;;
35326;SDS011;21436;52.348;20.928;2023-10-19T11:41:21;19.80;;;8.95;;
35326;SDS011;21436;52.348;20.928;2023-10-19T11:43:51;18.00;;;9.23;;
35326;SDS011;21436;52.348;20.928;2023-10-19T11:46:23;17.55;;;7.88;;
35326;SDS011;21436;52.348;20.928;2023-10-19T11:48:53;16.40;;;8.38;;
35326;SDS011;21436;52.348;20.928;2023-10-19T11:51:21;16.35;;;8.20;;
35326;SDS011;21436;52.348;20.928;2023-10-19T11:53:50;14.10;;;8.40;;
35326;SDS011;21436;52.348;20.928;2023-10-19T11:56:18;17.35;;;8.38;;
35326;SDS011;21436;52.348;20.928;2023-10-19T11:58:48;24.35;;;8.63;;
35326;SDS011;21436;52.348;20.928;2023-10-19T12:01:17;17.77;;;8.40;;
35326;SDS011;21436;52.348;20.928;2023-10-19T12:03:46;16.88;;;8.18;;
35326;SDS011;21436;52.348;20.928;2023-10-19T12:06:16;18.50;;;8.75;;
35326;SDS011;21436;52.348;20.928;2023-10-19T12:08:48;19.05;;;8.27;;
35326;SDS011;21436;52.348;20.928;2023-10-19T12:11:16;20.65;;;9.00;;
35326;SDS011;21436;52.348;20.928;2023-10-19T12:13:46;28.20;;;9.82;;
35326;SDS011;21436;52.348;20.928;2023-10-19T12:16:15;15.43;;;8.30;;
35326;SDS011;21436;52.348;20.928;2023-10-19T12:18:45;14.93;;;8.60;;
35326;SDS011;21436;52.348;20.928;2023-10-19T12:21:15;14.77;;;8.45;;
35326;SDS011;21436;52.348;20.928;2023-10-19T12:23:46;15.82;;;8.15;;
35326;SDS011;21436;52.348;20.928;2023-10-19T12:26:22;18.42;;;8.98;;
35326;SDS011;21436;52.348;20.928;2023-10-19T12:28:52;17.90;;;7.85;;
35326;SDS011;21436;52.348;20.928;2023-10-19T12:31:20;16.23;;;7.90;;
35326;SDS011;21436;52.348;20.928;2023-10-19T12:33:51;17.40;;;8.60;;
35326;SDS011;21436;52.348;20.928;2023-10-19T12:36:20;15.52;;;8.48;;
35326;SDS011;21436;52.348;20.928;2023-10-19T12:38:55;15.45;;;7.57;;
35326;SDS011;21436;52.348;20.928;2023-10-19T12:41:23;14.45;;;8.27;;
35326;SDS011;21436;52.348;20.928;2023-10-19T12:43:58;18.40;;;8.63;;
35326;SDS011;21436;52.348;20.928;2023-10-19T12:46:30;18.02;;;8.15;;
35326;SDS011;21436;52.348;20.928;2023-10-19T12:48:59;18.98;;;8.30;;
35326;SDS011;21436;52.348;20.928;2023-10-19T12:51:27;17.85;;;8.25;;
35326;SDS011;21436;52.348;20.928;2023-10-19T12:53:55;17.48;;;8.55;;
35326;SDS011;21436;52.348;20.928;2023-10-19T12:56:24;16.17;;;8.05;;
35326;SDS011;21436;52.348;20.928;2023-10-19T12:58:52;18.65;;;8.65;;
35326;SDS011;21436;52.348;20.928;2023-10-19T13:01:22;15.68;;;8.05;;
35326;SDS011;21436;52.348;20.928;2023-10-19T13:03:51;15.75;;;8.02;;
35326;SDS011;21436;52.348;20.928;2023-10-19T13:06:19;18.15;;;8.23;;
35326;SDS011;21436;52.348;20.928;2023-10-19T13:08:48;22.20;;;8.50;;
35326;SDS011;21436;52.348;20.928;2023-10-19T13:11:16;21.60;;;10.05;;
35326;SDS011;21436;52.348;20.928;2023-10-19T13:13:46;19.60;;;9.52;;
35326;SDS011;21436;52.348;20.928;2023-10-19T13:16:15;17.27;;;9.15;;
35326;SDS011;21436;52.348;20.928;2023-10-19T13:18:44;16.40;;;8.73;;
35326;SDS011;21436;52.348;20.928;2023-10-19T13:21:13;20.65;;;9.15;;
35326;SDS011;21436;52.348;20.928;2023-10-19T13:23:45;15.73;;;8.52;;
35326;SDS011;21436;52.348;20.928;2023-10-19T13:26:13;19.70;;;9.35;;
35326;SDS011;21436;52.348;20.928;2023-10-19T13:28:46;16.73;;;8.30;;
35326;SDS011;21436;52.348;20.928;2023-10-19T13:31:14;18.33;;;9.07;;
35326;SDS011;21436;52.348;20.928;2023-10-19T13:33:43;20.08;;;9.13;;
35326;SDS011;21436;52.348;20.928;2023-10-19T13:36:14;15.88;;;8.75;;
35326;SDS011;21436;52.348;20.928;2023-10-19T13:38:43;17.23;;;9.10;;
35326;SDS011;21436;52.348;20.928;2023-10-19T13:41:12;15.45;;;8.88;;
35326;SDS011;21436;52.348;20.928;2023-10-19T13:43:41;19.40;;;8.57;;
35326;SDS011;21436;52.348;20.928;2023-10-19T13:46:12;19.75;;;8.90;;
35326;SDS011;21436;52.348;20.928;2023-10-19T13:48:41;19.05;;;9.18;;
35326;SDS011;21436;52.348;20.928;2023-10-19T13:51:10;19.15;;;9.05;;
35326;SDS011;21436;52.348;20.928;2023-10-19T13:53:43;15.60;;;8.65;;
35326;SDS011;21436;52.348;20.928;2023-10-19T13:56:13;17.73;;;9.25;;
35326;SDS011;21436;52.348;20.928;2023-10-19T13:58:44;15.75;;;9.30;;
35326;SDS011;21436;52.348;20.928;2023-10-19T14:01:14;19.45;;;9.45;;
35326;SDS011;21436;52.348;20.928;2023-10-19T14:03:44;18.05;;;9.65;;
35326;SDS011;21436;52.348;20.928;2023-10-19T14:06:13;24.50;;;9.75;;
35326;SDS011;21436;52.348;20.928;2023-10-19T14:08:43;22.52;;;9.60;;
35326;SDS011;21436;52.348;20.928;2023-10-19T14:11:11;21.00;;;9.90;;
35326;SDS011;21436;52.348;20.928;2023-10-19T14:13:39;17.73;;;10.00;;
35326;SDS011;21436;52.348;20.928;2023-10-19T14:16:10;18.85;;;9.77;;
35326;SDS011;21436;52.348;20.928;2023-10-19T14:18:39;19.77;;;9.60;;
35326;SDS011;21436;52.348;20.928;2023-10-19T14:21:13;26.23;;;10.43;;
35326;SDS011;21436;52.348;20.928;2023-10-19T14:23:43;20.80;;;9.82;;
35326;SDS011;21436;52.348;20.928;2023-10-19T14:26:13;20.02;;;9.40;;
35326;SDS011;21436;52.348;20.928;2023-10-19T14:28:42;17.80;;;9.45;;
35326;SDS011;21436;52.348;20.928;2023-10-19T14:31:10;19.92;;;9.73;;
35326;SDS011;21436;52.348;20.928;2023-10-19T14:33:40;16.88;;;9.25;;
35326;SDS011;21436;52.348;20.928;2023-10-19T14:36:08;25.25;;;9.73;;
35326;SDS011;21436;52.348;20.928;2023-10-19T14:38:37;19.95;;;9.80;;
35326;SDS011;21436;52.348;20.928;2023-10-19T14:41:07;19.10;;;9.50;;
35326;SDS011;21436;52.348;20.928;2023-10-19T14:43:37;17.38;;;9.25;;
35326;SDS011;21436;52.348;20.928;2023-10-19T14:46:06;18.92;;;9.73;;
35326;SDS011;21436;52.348;20.928;2023-10-19T14:48:35;17.35;;;9.15;;